createdAt,value
2018-02-05T00:00:27.786Z,1.74
2018-02-05T00:02:57.941Z,1.81
2018-02-05T00:05:28.101Z,1.79
2018-02-05T00:07:58.793Z,1.81
2018-02-05T00:10:28.721Z,2.00
2018-02-05T00:12:58.822Z,1.85
2018-02-05T00:15:28.675Z,1.99
2018-02-05T00:17:58.469Z,1.84
2018-02-05T00:20:28.429Z,1.94
2018-02-05T00:22:59.204Z,2.02
2018-02-05T00:25:29.157Z,2.08
2018-02-05T00:27:59.096Z,2.00
2018-02-05T00:30:29.159Z,1.91
2018-02-05T00:32:58.956Z,2.01
2018-02-05T00:35:28.861Z,1.93
2018-02-05T00:37:58.798Z,1.93
2018-02-05T00:40:28.680Z,1.91
2018-02-05T00:42:58.858Z,1.86
2018-02-05T00:45:28.714Z,1.90
2018-02-05T00:47:58.579Z,1.82
2018-02-05T00:50:28.580Z,1.79
2018-02-05T00:52:58.534Z,1.78
2018-02-05T00:55:28.798Z,1.80
2018-02-05T00:57:58.743Z,1.79
2018-02-05T01:00:28.941Z,1.79
2018-02-05T01:02:58.717Z,1.73
2018-02-05T01:05:29.325Z,1.77
2018-02-05T01:07:59.092Z,1.93
2018-02-05T01:10:29.010Z,1.87
2018-02-05T01:12:58.945Z,1.86
2018-02-05T01:15:28.795Z,1.91
2018-02-05T01:17:59.591Z,1.81
2018-02-05T01:20:29.456Z,1.73
2018-02-05T01:22:59.360Z,1.74
2018-02-05T01:25:29.241Z,1.75
2018-02-05T01:27:59.559Z,1.71
2018-02-05T01:30:29.611Z,1.74
2018-02-05T01:32:59.527Z,1.69
2018-02-05T01:35:29.413Z,1.81
2018-02-05T01:37:59.469Z,1.67
2018-02-05T01:40:29.429Z,1.66
2018-02-05T01:42:59.300Z,1.72
2018-02-05T01:45:29.224Z,1.68
2018-02-05T01:47:59.813Z,1.71
2018-02-05T01:50:29.633Z,1.64
2018-02-05T01:52:59.547Z,1.58
2018-02-05T01:55:29.534Z,1.53
2018-02-05T01:57:59.895Z,1.59
2018-02-05T02:00:29.734Z,1.60
2018-02-05T02:02:59.504Z,1.59
2018-02-05T02:05:29.489Z,1.47
2018-02-05T02:07:59.530Z,1.52
2018-02-05T02:10:29.505Z,1.51
2018-02-05T02:13:00.081Z,1.46
2018-02-05T02:15:29.882Z,1.52
2018-02-05T02:17:59.797Z,1.39
2018-02-05T02:20:29.655Z,1.45
2018-02-05T02:22:59.793Z,1.41
2018-02-05T02:25:29.671Z,1.42
2018-02-05T02:27:59.648Z,1.35
2018-02-05T02:30:29.515Z,1.40
2018-02-05T02:32:59.720Z,1.35
2018-02-05T02:35:29.747Z,1.34
2018-02-05T02:37:59.826Z,1.37
2018-02-05T02:40:29.667Z,1.32
2018-02-05T02:42:59.538Z,1.31
2018-02-05T02:45:30.309Z,1.23
2018-02-05T02:48:00.224Z,1.27
2018-02-05T02:50:30.230Z,1.27
2018-02-05T02:53:00.172Z,1.16
2018-02-05T02:55:30.108Z,1.23
2018-02-05T02:58:01.237Z,1.16
2018-02-05T03:00:31.357Z,1.16
2018-02-05T03:03:01.151Z,1.16
2018-02-05T03:05:31.125Z,1.12
2018-02-05T03:08:01.793Z,1.14
2018-02-05T03:10:31.735Z,1.12
2018-02-05T03:13:01.766Z,1.05
2018-02-05T03:15:31.718Z,1.10
2018-02-05T03:18:02.242Z,1.04
2018-02-05T03:20:33.164Z,1.02
2018-02-05T03:23:03.045Z,1.05
2018-02-05T03:25:32.853Z,1.00
2018-02-05T03:28:03.015Z,1.06
2018-02-05T03:30:32.833Z,1.10
2018-02-05T03:33:02.831Z,1.05
2018-02-05T03:35:32.840Z,1.05
2018-02-05T03:38:02.858Z,1.00
2018-02-05T03:40:32.662Z,1.06
2018-02-05T03:43:02.570Z,1.04
2018-02-05T03:45:32.536Z,1.05
2018-02-05T03:48:03.304Z,0.99
2018-02-05T03:50:33.177Z,0.99
2018-02-05T03:53:03.195Z,0.97
2018-02-05T03:55:33.178Z,1.08
2018-02-05T03:58:02.994Z,1.00
2018-02-05T04:00:32.772Z,0.98
2018-02-05T04:03:02.659Z,0.95
2018-02-05T04:05:33.279Z,0.95
2018-02-05T04:08:03.258Z,0.90
2018-02-05T04:10:36.092Z,0.88
2018-02-05T04:13:06.207Z,0.84
2018-02-05T04:15:37.751Z,0.88
2018-02-05T04:18:07.713Z,0.85
2018-02-05T04:20:37.929Z,0.95
2018-02-05T04:23:07.789Z,0.85
2018-02-05T04:25:37.826Z,0.83
2018-02-05T04:28:07.742Z,0.85
2018-02-05T04:30:37.722Z,0.85
2018-02-05T04:33:07.533Z,0.77
2018-02-05T04:35:37.709Z,0.81
2018-02-05T04:38:07.586Z,0.83
2018-02-05T04:40:37.740Z,0.81
2018-02-05T04:43:08.771Z,0.81
2018-02-05T04:45:38.833Z,0.85
2018-02-05T04:48:08.701Z,0.81
2018-02-05T04:50:38.617Z,0.83
2018-02-05T04:53:10.332Z,0.78
2018-02-05T04:55:40.257Z,0.80
2018-02-05T04:58:10.214Z,0.84
2018-02-05T05:00:40.224Z,0.84
2018-02-05T05:03:10.084Z,0.82
2018-02-05T05:05:40.044Z,0.77
2018-02-05T05:08:09.863Z,0.77
2018-02-05T05:10:39.740Z,0.79
2018-02-05T05:13:09.736Z,0.84
2018-02-05T05:15:39.557Z,0.78
2018-02-05T05:18:09.381Z,0.84
2018-02-05T05:20:39.340Z,0.83
2018-02-05T05:23:09.147Z,0.82
2018-02-05T05:25:39.232Z,0.78
2018-02-05T05:28:09.070Z,0.68
2018-02-05T05:30:38.894Z,0.67
2018-02-05T05:33:08.876Z,0.66
2018-02-05T05:35:38.830Z,0.65
2018-02-05T05:38:08.574Z,0.71
2018-02-05T05:40:38.662Z,0.63
2018-02-05T05:43:08.561Z,0.68
2018-02-05T05:45:38.566Z,1.10
2018-02-05T05:48:08.450Z,0.83
2018-02-05T05:50:38.816Z,0.66
2018-02-05T05:53:08.657Z,0.55
2018-02-05T05:55:39.387Z,0.53
2018-02-05T05:58:09.268Z,0.52
2018-02-05T06:00:39.154Z,0.61
2018-02-05T06:03:09.406Z,0.63
2018-02-05T06:05:39.500Z,0.57
2018-02-05T06:08:09.672Z,0.57
2018-02-05T06:10:39.515Z,0.52
2018-02-05T06:13:09.684Z,0.49
2018-02-05T06:15:39.775Z,0.49
2018-02-05T06:18:09.794Z,0.69
2018-02-05T06:20:39.776Z,0.96
2018-02-05T06:23:09.996Z,0.70
2018-02-05T06:25:39.908Z,0.56
2018-02-05T06:28:09.728Z,0.61
2018-02-05T06:30:39.535Z,0.48
2018-02-05T06:33:09.572Z,0.53
2018-02-05T06:35:40.873Z,0.48
2018-02-05T06:38:10.994Z,0.61
2018-02-05T06:40:41.249Z,0.48
2018-02-05T06:43:11.181Z,0.59
2018-02-05T06:45:41.124Z,0.56
2018-02-05T06:48:11.046Z,0.53
2018-02-05T06:52:00.255Z,0.50
2018-02-05T06:55:49.518Z,0.39
2018-02-05T06:58:19.728Z,0.47
2018-02-05T07:00:49.816Z,0.53
2018-02-05T07:03:19.742Z,0.57
2018-02-05T07:05:50.420Z,0.58
2018-02-05T07:08:20.309Z,0.53
2018-02-05T07:10:50.256Z,0.57
2018-02-05T07:13:20.107Z,0.54
2018-02-05T07:15:50.086Z,0.62
2018-02-05T07:18:19.917Z,1.05
2018-02-05T07:20:50.039Z,0.86
2018-02-05T07:23:20.213Z,0.74
2018-02-05T07:25:50.057Z,0.71
2018-02-05T07:28:19.945Z,0.69
2018-02-05T07:30:49.988Z,0.70
2018-02-05T07:33:21.441Z,0.75
2018-02-05T07:35:51.787Z,0.70
2018-02-05T07:38:22.316Z,0.74
2018-02-05T07:40:52.587Z,0.77
2018-02-05T07:43:22.896Z,1.08
2018-02-05T07:45:53.165Z,1.11
2018-02-05T07:48:23.412Z,1.05
2018-02-05T07:50:53.750Z,0.97
2018-02-05T07:53:24.085Z,0.97
2018-02-05T07:55:54.468Z,0.97
2018-02-05T07:58:24.657Z,1.21
2018-02-05T08:00:55.216Z,1.21
2018-02-05T08:03:25.553Z,1.18
2018-02-05T08:05:56.025Z,1.24
2018-02-05T08:08:27.296Z,1.33
2018-02-05T08:10:57.787Z,1.31
2018-02-05T08:13:28.113Z,1.41
2018-02-05T08:15:59.212Z,1.39
2018-02-05T08:18:29.474Z,1.47
2018-02-05T08:21:00.312Z,1.52
2018-02-05T08:23:31.312Z,1.72
2018-02-05T08:26:01.564Z,1.69
2018-02-05T08:28:32.875Z,1.66
2018-02-05T08:31:03.210Z,1.68
2018-02-05T08:33:33.412Z,1.70
2018-02-05T08:36:03.852Z,1.77
2018-02-05T08:38:34.204Z,1.83
2018-02-05T08:41:04.632Z,1.80
2018-02-05T08:43:35.380Z,1.88
2018-02-05T08:46:05.996Z,1.90
2018-02-05T08:48:36.182Z,1.87
2018-02-05T08:51:06.548Z,1.87
2018-02-05T08:53:36.749Z,1.87
2018-02-05T08:56:07.016Z,1.97
2018-02-05T08:58:38.121Z,2.02
2018-02-05T09:01:08.538Z,2.08
2018-02-05T09:03:39.039Z,2.02
2018-02-05T09:06:09.514Z,2.15
2018-02-05T09:08:39.767Z,2.36
2018-02-05T09:11:10.213Z,2.42
2018-02-05T09:13:41.239Z,2.52
2018-02-05T09:16:12.336Z,2.64
2018-02-05T09:18:42.676Z,2.59
2018-02-05T09:21:13.213Z,2.65
2018-02-05T09:23:44.346Z,2.75
2018-02-05T09:26:14.970Z,2.79
2018-02-05T09:28:45.656Z,2.80
2018-02-05T09:31:16.842Z,2.73
2018-02-05T09:33:47.089Z,2.81
2018-02-05T09:36:17.274Z,2.86
2018-02-05T09:38:47.705Z,2.97
2018-02-05T09:41:18.204Z,2.99
2018-02-05T09:43:48.740Z,2.94
2018-02-05T09:46:19.242Z,3.10
2018-02-05T09:48:49.664Z,3.18
2018-02-05T09:51:20.088Z,3.20
2018-02-05T09:53:50.512Z,3.32
2018-02-05T09:56:21.096Z,3.29
2018-02-05T09:58:51.722Z,3.38
2018-02-05T10:01:23.337Z,3.28
2018-02-05T10:03:53.632Z,3.26
2018-02-05T10:06:23.987Z,3.19
2018-02-05T10:08:54.272Z,3.37
2018-02-05T10:11:24.446Z,3.37
2018-02-05T10:13:55.591Z,3.17
2018-02-05T10:16:26.575Z,3.27
2018-02-05T10:18:56.936Z,3.39
2018-02-05T10:21:27.122Z,3.37
2018-02-05T10:23:57.772Z,3.20
2018-02-05T10:26:28.066Z,3.43
2018-02-05T10:28:58.383Z,3.31
2018-02-05T10:31:28.706Z,3.37
2018-02-05T10:33:58.964Z,3.35
2018-02-05T10:36:29.218Z,3.35
2018-02-05T10:38:59.612Z,3.44
2018-02-05T10:41:29.910Z,3.51
2018-02-05T10:44:00.346Z,3.62
2018-02-05T10:46:30.578Z,3.61
2018-02-05T10:49:01.130Z,3.60
2018-02-05T10:51:31.230Z,3.61
2018-02-05T10:54:01.297Z,3.65
2018-02-05T10:56:32.333Z,3.82
2018-02-05T10:59:02.501Z,3.85
2018-02-05T11:01:32.584Z,3.83
2018-02-05T11:04:03.249Z,3.86
2018-02-05T11:06:33.336Z,3.76
2018-02-05T11:09:05.029Z,3.80
2018-02-05T11:11:34.996Z,3.71
2018-02-05T11:14:04.904Z,3.81
2018-02-05T11:16:34.766Z,3.78
2018-02-05T11:19:04.697Z,3.67
2018-02-05T11:21:34.652Z,3.81
2018-02-05T11:24:04.862Z,3.86
2018-02-05T11:26:34.729Z,3.85
2018-02-05T11:29:04.731Z,3.94
2018-02-05T11:31:35.504Z,3.99
2018-02-05T11:34:06.038Z,4.05
2018-02-05T11:36:36.455Z,4.19
2018-02-05T11:39:07.217Z,4.28
2018-02-05T11:41:37.474Z,4.27
2018-02-05T11:44:11.032Z,4.28
2018-02-05T11:46:40.994Z,4.30
2018-02-05T11:49:11.727Z,4.29
2018-02-05T11:51:42.433Z,4.38
2018-02-05T11:54:15.018Z,4.46
2018-02-05T11:56:45.011Z,4.37
2018-02-05T11:59:15.251Z,4.30
2018-02-05T12:01:45.193Z,4.36
2018-02-05T12:04:15.868Z,4.57
2018-02-05T12:06:46.142Z,4.65
2018-02-05T12:09:16.929Z,4.57
2018-02-05T12:11:46.751Z,4.59
2018-02-05T12:14:16.684Z,4.57
2018-02-05T12:16:46.680Z,4.52
2018-02-05T12:19:16.522Z,4.50
2018-02-05T12:21:46.558Z,4.61
2018-02-05T12:24:17.145Z,4.79
2018-02-05T12:26:47.017Z,4.72
2018-02-05T12:29:17.647Z,4.63
2018-02-05T12:31:47.792Z,4.63
2018-02-05T12:34:17.625Z,4.80
2018-02-05T12:36:47.504Z,4.94
2018-02-05T12:39:17.343Z,4.91
2018-02-05T12:41:47.197Z,4.95
2018-02-05T12:44:17.119Z,4.87
2018-02-05T12:46:47.766Z,4.82
2018-02-05T12:49:17.862Z,4.85
2018-02-05T12:51:48.041Z,4.96
2018-02-05T12:54:18.060Z,4.95
2018-02-05T12:56:48.270Z,4.93
2018-02-05T12:59:18.337Z,5.18
2018-02-05T13:01:48.347Z,5.22
2018-02-05T13:04:18.430Z,5.13
2018-02-05T13:06:48.461Z,5.10
2018-02-05T13:09:18.489Z,5.25
2018-02-05T13:11:48.378Z,5.36
2018-02-05T13:14:18.321Z,5.30
2018-02-05T13:16:48.326Z,5.30
2018-02-05T13:19:18.235Z,5.31
2018-02-05T13:21:48.090Z,5.53
2018-02-05T13:24:18.026Z,5.68
2018-02-05T13:26:48.744Z,5.68
2018-02-05T13:29:19.817Z,5.63
2018-02-05T13:31:49.797Z,5.55
2018-02-05T13:34:19.851Z,5.48
2018-02-05T13:36:49.993Z,5.46
2018-02-05T13:39:20.096Z,5.40
2018-02-05T13:41:50.217Z,5.39
2018-02-05T13:44:21.304Z,5.44
2018-02-05T13:46:51.471Z,5.44
2018-02-05T13:49:21.451Z,5.23
2018-02-05T13:51:51.442Z,5.13
2018-02-05T13:54:21.399Z,5.13
2018-02-05T13:56:52.076Z,5.21
2018-02-05T13:59:22.002Z,5.44
2018-02-05T14:01:52.780Z,5.50
2018-02-05T14:04:23.472Z,5.51
2018-02-05T14:06:53.299Z,5.40
2018-02-05T14:09:23.113Z,5.42
2018-02-05T14:11:53.548Z,5.50
2018-02-05T14:14:23.450Z,5.58
2018-02-05T14:16:53.327Z,5.50
2018-02-05T14:19:23.493Z,5.28
2018-02-05T14:21:53.630Z,5.25
2018-02-05T14:24:23.564Z,5.06
2018-02-05T14:26:54.203Z,5.08
2018-02-05T14:29:24.833Z,5.09
2018-02-05T14:31:55.599Z,4.95
2018-02-05T14:34:25.605Z,4.95
2018-02-05T14:36:55.588Z,4.98
2018-02-05T14:39:25.671Z,5.06
2018-02-05T14:41:56.181Z,5.04
2018-02-05T14:44:27.185Z,4.97
2018-02-05T14:46:58.009Z,4.95
2018-02-05T14:49:27.937Z,4.82
2018-02-05T14:51:59.114Z,4.63
2018-02-05T14:54:28.996Z,4.61
2018-02-05T14:57:00.036Z,4.68
2018-02-05T14:59:30.096Z,4.50
2018-02-05T15:02:00.126Z,4.31
2018-02-05T15:04:30.131Z,4.36
2018-02-05T15:06:59.986Z,4.37
2018-02-05T15:09:30.255Z,4.40
2018-02-05T15:12:00.118Z,4.33
2018-02-05T15:14:30.275Z,4.28
2018-02-05T15:17:00.101Z,4.22
2018-02-05T15:19:29.891Z,4.20
2018-02-05T15:22:00.595Z,4.29
2018-02-05T15:24:32.448Z,4.25
2018-02-05T15:27:02.497Z,4.17
2018-02-05T15:29:32.542Z,4.16
2018-02-05T15:32:02.506Z,4.12
2018-02-05T15:34:32.425Z,4.07
2018-02-05T15:37:02.243Z,4.07
2018-02-05T15:39:32.039Z,4.08
2018-02-05T15:42:02.534Z,4.04
2018-02-05T15:44:32.430Z,3.96
2018-02-05T15:47:03.108Z,5.07
2018-02-05T15:49:33.055Z,4.30
2018-02-05T15:52:02.842Z,3.99
2018-02-05T15:54:32.921Z,3.80
2018-02-05T15:57:02.653Z,3.74
2018-02-05T15:59:32.717Z,3.72
2018-02-05T16:02:02.603Z,3.74
2018-02-05T16:04:32.615Z,3.71
2018-02-05T16:07:02.638Z,3.50
2018-02-05T16:09:32.769Z,3.50
2018-02-05T16:12:02.556Z,3.43
2018-02-05T16:14:32.894Z,3.46
2018-02-05T16:17:02.789Z,3.36
2018-02-05T16:19:34.604Z,3.36
2018-02-05T16:22:05.440Z,3.34
2018-02-05T16:24:35.297Z,3.27
2018-02-05T16:27:05.166Z,3.19
2018-02-05T16:29:35.111Z,3.14
2018-02-05T16:32:05.015Z,3.05
2018-02-05T16:34:35.682Z,3.08
2018-02-05T16:37:05.545Z,3.04
2018-02-05T16:39:35.410Z,3.04
2018-02-05T16:42:05.282Z,3.01
2018-02-05T16:44:35.934Z,2.93
2018-02-05T16:47:05.812Z,2.93
2018-02-05T16:49:36.368Z,2.94
2018-02-05T16:52:07.046Z,2.99
2018-02-05T16:54:36.818Z,2.89
2018-02-05T16:57:06.955Z,2.90
2018-02-05T16:59:37.246Z,2.86
2018-02-05T17:02:07.781Z,2.80
2018-02-05T17:04:39.213Z,2.79
2018-02-05T17:07:09.292Z,2.67
2018-02-05T17:09:39.264Z,2.64
2018-02-05T17:12:10.309Z,2.67
2018-02-05T17:14:41.265Z,2.69
2018-02-05T17:17:11.245Z,2.71
2018-02-05T17:19:41.232Z,2.67
2018-02-05T17:22:11.192Z,2.70
2018-02-05T17:24:41.134Z,2.63
2018-02-05T17:27:11.263Z,2.62
2018-02-05T17:29:41.195Z,2.59
2018-02-05T17:32:11.039Z,2.57
2018-02-05T17:34:40.903Z,2.59
2018-02-05T17:37:11.921Z,3.25
2018-02-05T17:39:41.846Z,3.08
2018-02-05T17:42:12.606Z,2.78
2018-02-05T17:44:42.629Z,2.64
2018-02-05T17:47:13.316Z,3.24
2018-02-05T17:49:43.328Z,2.89
2018-02-05T17:52:13.296Z,2.67
2018-02-05T17:54:43.785Z,2.63
2018-02-05T17:57:15.161Z,2.63
2018-02-05T17:59:45.721Z,2.66
2018-02-05T18:02:17.129Z,2.54
2018-02-05T18:04:47.341Z,2.60
2018-02-05T18:07:17.213Z,2.53
2018-02-05T18:09:47.087Z,2.53
2018-02-05T18:12:17.824Z,2.51
2018-02-05T18:14:47.795Z,2.58
2018-02-05T18:17:17.925Z,2.48
2018-02-05T18:19:47.758Z,2.44
2018-02-05T18:22:18.376Z,2.43
2018-02-05T18:24:48.376Z,2.43
2018-02-05T18:27:18.470Z,2.51
2018-02-05T18:29:48.295Z,2.31
2018-02-05T18:32:18.797Z,2.36
2018-02-05T18:34:48.689Z,2.31
2018-02-05T18:37:18.678Z,2.45
2018-02-05T18:39:48.868Z,2.34
2018-02-05T18:42:18.977Z,2.27
2018-02-05T18:44:49.823Z,2.34
2018-02-05T18:47:20.484Z,2.37
2018-02-05T18:49:50.785Z,2.30
2018-02-05T18:52:20.714Z,2.20
2018-02-05T18:54:50.802Z,2.23
2018-02-05T18:57:21.461Z,2.54
2018-02-05T18:59:51.333Z,2.36
2018-02-05T19:02:24.319Z,2.33
2018-02-05T19:04:54.351Z,2.35
2018-02-05T19:07:25.080Z,2.31
2018-02-05T19:09:54.866Z,2.22
2018-02-05T19:12:25.114Z,2.17
2018-02-05T19:14:54.984Z,2.15
2018-02-05T19:17:25.816Z,2.15
2018-02-05T19:19:55.739Z,2.20
2018-02-05T19:22:25.638Z,2.19
2018-02-05T19:24:55.534Z,2.17
2018-02-05T19:27:26.265Z,2.18
2018-02-05T19:29:57.257Z,2.06
2018-02-05T19:32:27.434Z,2.02
2018-02-05T19:34:58.516Z,2.08
2018-02-05T19:37:28.906Z,2.14
2018-02-05T19:39:59.309Z,2.13
2018-02-05T19:42:29.519Z,2.05
2018-02-05T19:44:59.818Z,2.02
2018-02-05T19:47:30.295Z,2.07
2018-02-05T19:50:00.172Z,1.99
2018-02-05T19:52:31.116Z,1.97
2018-02-05T19:55:01.926Z,1.94
2018-02-05T19:57:32.549Z,2.04
2018-02-05T20:00:02.625Z,1.98
2018-02-05T20:02:32.839Z,1.98
2018-02-05T20:05:03.411Z,1.85
2018-02-05T20:07:33.555Z,1.88
2018-02-05T20:10:03.978Z,1.85
2018-02-05T20:12:34.008Z,1.93
2018-02-05T20:15:04.425Z,1.83
2018-02-05T20:17:34.622Z,1.81
2018-02-05T20:20:04.761Z,1.73
2018-02-05T20:22:34.744Z,1.60
2018-02-05T20:25:05.738Z,1.88
2018-02-05T20:27:35.897Z,1.79
2018-02-05T20:30:07.580Z,1.78
2018-02-05T20:32:37.784Z,1.86
2018-02-05T20:35:08.365Z,1.95
2018-02-05T20:37:38.754Z,1.92
2018-02-05T20:40:10.273Z,1.83
2018-02-05T20:42:40.599Z,1.74
2018-02-05T20:45:10.888Z,1.71
2018-02-05T20:47:41.121Z,1.78
2018-02-05T20:50:11.518Z,1.68
2018-02-05T20:52:41.965Z,1.66
2018-02-05T20:55:12.698Z,1.69
2018-02-05T20:57:43.839Z,1.73
2018-02-05T21:00:14.098Z,1.71
2018-02-05T21:02:44.484Z,1.59
2018-02-05T21:05:16.490Z,1.66
2018-02-05T21:07:46.663Z,2.75
2018-02-05T21:10:16.733Z,2.37
2018-02-05T21:12:47.611Z,1.98
2018-02-05T21:15:18.278Z,1.89
2018-02-05T21:17:49.284Z,1.85
2018-02-05T21:20:19.615Z,1.83
2018-02-05T21:22:49.518Z,1.68
2018-02-05T21:25:19.283Z,1.61
2018-02-05T21:27:49.825Z,1.59
2018-02-05T21:30:20.021Z,1.55
2018-02-05T21:32:49.912Z,1.49
2018-02-05T21:35:19.970Z,1.59
2018-02-05T21:37:50.243Z,1.54
2018-02-05T21:40:24.785Z,1.47
2018-02-05T21:42:54.793Z,1.43
2018-02-05T21:45:24.862Z,1.46
2018-02-05T21:47:54.704Z,1.44
2018-02-05T21:50:24.764Z,1.46
2018-02-05T21:52:55.709Z,1.41
2018-02-05T21:55:26.311Z,1.49
2018-02-05T21:57:56.397Z,1.46
2018-02-05T22:00:26.589Z,1.45
2018-02-05T22:02:56.688Z,1.36
2018-02-05T22:05:27.444Z,1.37
2018-02-05T22:07:58.177Z,1.37
2018-02-05T22:10:28.061Z,1.36
2018-02-05T22:12:58.148Z,1.43
2018-02-05T22:15:28.154Z,1.28
2018-02-05T22:17:58.238Z,1.19
2018-02-05T22:20:28.831Z,1.23
2018-02-05T22:22:58.726Z,1.20
2018-02-05T22:25:28.897Z,1.21
2018-02-05T22:27:59.628Z,1.24
2018-02-05T22:30:30.309Z,1.22
2018-02-05T22:33:00.281Z,1.42
2018-02-05T22:35:31.225Z,1.34
2018-02-05T22:38:01.952Z,1.24
2018-02-05T22:40:32.334Z,1.19
2018-02-05T22:43:02.496Z,1.15
2018-02-05T22:45:32.918Z,1.15
2018-02-05T22:48:02.891Z,1.15
2018-02-05T22:50:33.241Z,1.08
2018-02-05T22:53:03.346Z,1.08
2018-02-05T22:55:33.646Z,1.04
2018-02-05T22:58:03.722Z,1.11
2018-02-05T23:00:34.014Z,1.08
2018-02-05T23:03:04.140Z,1.12
2018-02-05T23:05:34.142Z,1.06
2018-02-05T23:08:04.152Z,1.00
2018-02-05T23:10:33.968Z,0.99
2018-02-05T23:13:03.985Z,0.99
2018-02-05T23:15:34.138Z,1.03
2018-02-05T23:18:04.274Z,1.04
2018-02-05T23:20:34.201Z,1.07
2018-02-05T23:23:04.118Z,1.05
2018-02-05T23:25:34.100Z,0.99
2018-02-05T23:28:03.971Z,0.94
2018-02-05T23:30:33.909Z,0.92
2018-02-05T23:33:03.678Z,1.03
2018-02-05T23:35:33.795Z,1.02
2018-02-05T23:38:04.677Z,0.88
2018-02-05T23:40:34.604Z,0.95
2018-02-05T23:43:04.538Z,0.86
2018-02-05T23:45:34.543Z,0.97
2018-02-05T23:48:04.344Z,0.90
2018-02-05T23:50:34.258Z,0.94
2018-02-05T23:53:04.140Z,0.86
2018-02-05T23:55:35.265Z,0.80
2018-02-05T23:58:05.042Z,0.84
